Time;durP1;ratioP1;P1;durP2;ratioP2;P2;SDS_P1;SDS_P2;PMS_P1;PMS_P2;Temp;Humidity;BMP_temperature;BMP_pressure;BME280_temperature;BME280_humidity;BME280_pressure;Samples;Min_cycle;Max_cycle;Signal;HPM_P1;HPM_P2
2023/06/03 00:00:15;;;;;;;3.67;2.00;;;23.70;51.20;;;;;;6153400;28;83255;-59
2023/06/03 00:03:16;;;;;;;2.13;1.75;;;23.70;51.20;;;;;;6153894;28;81046;-58
2023/06/03 00:06:16;;;;;;;3.97;1.95;;;23.70;51.10;;;;;;6153541;28;80585;-58
2023/06/03 00:09:17;;;;;;;3.78;1.77;;;23.70;51.20;;;;;;6152804;28;81009;-59
2023/06/03 00:12:17;;;;;;;1.95;1.40;;;23.70;51.10;;;;;;6153489;28;83460;-58
2023/06/03 00:15:18;;;;;;;3.00;2.20;;;23.70;51.10;;;;;;6153967;28;81041;-58
2023/06/03 00:18:18;;;;;;;4.00;1.70;;;23.70;51.10;;;;;;6150356;28;82055;-58
2023/06/03 00:21:19;;;;;;;3.72;1.90;;;23.70;51.20;;;;;;6152872;28;80374;-58
2023/06/03 00:24:23;;;;;;;5.38;1.95;;;23.70;51.30;;;;;;6154269;28;81219;-59
2023/06/03 00:27:24;;;;;;;2.90;1.83;;;23.70;51.40;;;;;;6158302;28;83320;-58
2023/06/03 00:30:24;;;;;;;3.55;2.00;;;23.70;51.20;;;;;;6152983;28;80996;-60
2023/06/03 00:33:25;;;;;;;2.78;1.90;;;23.70;51.00;;;;;;6153832;28;80602;-60
2023/06/03 00:36:25;;;;;;;3.80;2.03;;;23.70;50.90;;;;;;6153950;28;80237;-58
2023/06/03 00:39:26;;;;;;;2.75;1.88;;;23.60;50.80;;;;;;6153783;28;84201;-58
2023/06/03 00:42:26;;;;;;;5.38;1.77;;;23.60;50.90;;;;;;6151933;28;80555;-58
2023/06/03 00:45:27;;;;;;;3.13;2.03;;;23.60;51.00;;;;;;6152850;28;80912;-58
2023/06/03 00:48:28;;;;;;;5.20;2.10;;;23.60;51.00;;;;;;6155712;28;86612;-58
2023/06/03 00:51:28;;;;;;;4.43;2.03;;;23.60;51.00;;;;;;6151947;28;80934;-59
2023/06/03 00:54:29;;;;;;;2.60;2.00;;;23.60;51.00;;;;;;6154021;28;80541;-58
2023/06/03 00:57:29;;;;;;;2.63;2.10;;;23.60;51.10;;;;;;6153571;28;80378;-58
2023/06/03 01:00:30;;;;;;;3.65;1.83;;;23.60;50.90;;;;;;6151570;28;80365;-58
2023/06/03 01:03:31;;;;;;;2.70;2.00;;;23.60;50.80;;;;;;6151109;28;80568;-59
2023/06/03 01:06:32;;;;;;;4.43;2.33;;;23.60;50.80;;;;;;6150882;28;81828;-59
2023/06/03 01:09:33;;;;;;;2.75;1.90;;;23.60;50.70;;;;;;6150088;28;80800;-59
2023/06/03 01:12:33;;;;;;;2.08;1.75;;;23.50;50.80;;;;;;6149710;28;80720;-60
2023/06/03 01:15:34;;;;;;;3.40;1.92;;;23.50;50.80;;;;;;6148961;28;80700;-59
2023/06/03 01:18:35;;;;;;;4.47;2.20;;;23.60;50.70;;;;;;6152122;28;82973;-59
2023/06/03 01:21:38;;;;;;;3.80;2.30;;;23.60;50.70;;;;;;6149173;28;81210;-60
2023/06/03 01:24:40;;;;;;;3.47;2.20;;;23.60;50.80;;;;;;6151521;28;81981;-61
2023/06/03 01:27:41;;;;;;;4.30;2.10;;;23.50;50.70;;;;;;6154241;28;83256;-59
2023/06/03 01:30:41;;;;;;;2.28;1.80;;;23.50;50.90;;;;;;6151561;28;80541;-59
2023/06/03 01:33:43;;;;;;;3.42;1.73;;;23.50;50.80;;;;;;6151130;28;82324;-57
2023/06/03 01:36:43;;;;;;;3.17;1.77;;;23.50;51.50;;;;;;6165051;28;83020;-59
2023/06/03 01:39:44;;;;;;;3.28;1.90;;;23.50;50.80;;;;;;6167211;28;83262;-58
2023/06/03 01:42:45;;;;;;;3.05;2.08;;;23.50;50.60;;;;;;6150150;28;83248;-58
2023/06/03 01:45:45;;;;;;;2.28;1.85;;;23.50;50.60;;;;;;6154590;28;83430;-59
2023/06/03 01:48:46;;;;;;;2.33;1.80;;;23.50;50.80;;;;;;6151291;28;81231;-59
2023/06/03 01:51:46;;;;;;;2.72;1.98;;;23.50;50.80;;;;;;6151849;28;81384;-71
2023/06/03 01:54:47;;;;;;;2.42;1.88;;;23.50;50.70;;;;;;6158174;28;81771;-69
2023/06/03 01:57:48;;;;;;;3.03;1.95;;;23.50;50.80;;;;;;6165151;28;82798;-70
2023/06/03 02:00:49;;;;;;;3.50;2.10;;;23.50;50.80;;;;;;6161517;28;81710;-69
2023/06/03 02:03:50;;;;;;;2.38;1.98;;;23.50;50.70;;;;;;6165862;28;82480;-72
2023/06/03 02:06:51;;;;;;;4.55;2.60;;;23.50;50.80;;;;;;6158653;28;82028;-72
2023/06/03 02:09:51;;;;;;;5.20;2.28;;;23.50;50.70;;;;;;6137283;28;81884;-65
2023/06/03 02:12:52;;;;;;;3.05;2.20;;;23.50;50.70;;;;;;6152834;28;80300;-65
2023/06/03 02:15:53;;;;;;;2.85;2.00;;;23.50;50.60;;;;;;6151764;28;80372;-67
2023/06/03 02:18:54;;;;;;;5.50;2.58;;;23.50;50.50;;;;;;6151018;28;80882;-69
2023/06/03 02:21:57;;;;;;;2.80;2.10;;;23.50;50.70;;;;;;6153611;28;81472;-69
2023/06/03 02:24:58;;;;;;;3.22;1.65;;;23.50;50.50;;;;;;6151466;28;80540;-69
2023/06/03 02:27:59;;;;;;;2.58;2.05;;;23.50;50.40;;;;;;6155530;28;80672;-59
2023/06/03 02:31:00;;;;;;;3.47;1.60;;;23.50;50.30;;;;;;6154632;28;80849;-58
2023/06/03 02:34:00;;;;;;;2.60;1.88;;;23.50;50.30;;;;;;6153751;28;81481;-57
2023/06/03 02:37:01;;;;;;;3.08;2.03;;;23.50;50.30;;;;;;6155603;28;81146;-58
2023/06/03 02:40:02;;;;;;;3.88;1.95;;;23.50;50.50;;;;;;6169395;28;83757;-58
2023/06/03 02:43:04;;;;;;;4.18;2.13;;;23.40;50.40;;;;;;6152133;28;83570;-60
2023/06/03 02:46:05;;;;;;;3.33;2.05;;;23.40;50.20;;;;;;6147834;28;84918;-58
2023/06/03 02:49:05;;;;;;;2.30;1.80;;;23.50;50.40;;;;;;6169074;28;83500;-58
2023/06/03 02:52:07;;;;;;;3.15;2.33;;;23.50;50.10;;;;;;6156042;28;82506;-56
2023/06/03 02:55:07;;;;;;;3.65;2.20;;;23.50;50.00;;;;;;6169890;28;82356;-59
2023/06/03 02:58:08;;;;;;;4.38;2.03;;;23.40;50.00;;;;;;6154319;28;80147;-58
2023/06/03 03:01:09;;;;;;;2.25;1.70;;;23.40;50.00;;;;;;6162047;28;81865;-57
2023/06/03 03:04:09;;;;;;;3.55;1.88;;;23.40;50.00;;;;;;6155145;28;80907;-60
2023/06/03 03:07:10;;;;;;;3.00;1.92;;;23.40;50.00;;;;;;6153233;28;83039;-58
2023/06/03 03:10:10;;;;;;;5.65;2.08;;;23.40;50.00;;;;;;6152207;28;81564;-59
2023/06/03 03:13:11;;;;;;;3.10;2.10;;;23.40;50.10;;;;;;6155133;28;80308;-59
2023/06/03 03:16:11;;;;;;;3.45;2.28;;;23.40;50.20;;;;;;6136940;28;82722;-59
2023/06/03 03:19:14;;;;;;;4.35;2.42;;;23.40;50.30;;;;;;6152951;28;80647;-58
2023/06/03 03:22:15;;;;;;;3.10;1.95;;;23.40;50.10;;;;;;6169859;28;83309;-59
2023/06/03 03:25:15;;;;;;;2.63;1.90;;;23.40;50.40;;;;;;6154770;28;80812;-70
2023/06/03 03:28:17;;;;;;;5.97;2.20;;;23.40;50.30;;;;;;6152798;28;83627;-69
2023/06/03 03:31:20;;;;;;;5.65;2.33;;;23.40;51.10;;;;;;6152087;28;83819;-67
2023/06/03 03:34:21;;;;;;;3.17;1.92;;;23.40;50.40;;;;;;6154421;28;82995;-69
2023/06/03 03:37:22;;;;;;;2.97;2.13;;;23.40;50.30;;;;;;6152155;28;83559;-65
2023/06/03 03:40:23;;;;;;;2.38;1.90;;;23.40;50.20;;;;;;6151681;28;82741;-67
2023/06/03 03:43:28;;;;;;;2.78;2.42;;;23.40;50.40;;;;;;6153905;28;80408;-68
2023/06/03 03:46:28;;;;;;;4.18;2.00;;;23.40;50.40;;;;;;6145793;28;83419;-66
2023/06/03 03:49:31;;;;;;;2.85;1.90;;;23.40;50.40;;;;;;6153337;28;81508;-67
2023/06/03 03:52:34;;;;;;;3.90;2.55;;;23.40;50.20;;;;;;6152078;28;82993;-67
2023/06/03 03:55:35;;;;;;;3.78;2.08;;;23.40;50.40;;;;;;6170405;28;81528;-68
2023/06/03 03:58:36;;;;;;;5.03;2.28;;;23.40;50.40;;;;;;6154040;28;80731;-67
2023/06/03 04:01:38;;;;;;;3.80;2.72;;;23.40;50.30;;;;;;6153627;28;80855;-67
2023/06/03 04:04:43;;;;;;;2.88;1.85;;;23.40;50.40;;;;;;6168713;28;83406;-70
2023/06/03 04:07:46;;;;;;;3.22;2.10;;;23.40;50.60;;;;;;6151608;28;82054;-69
2023/06/03 04:10:46;;;;;;;3.13;1.73;;;23.40;50.50;;;;;;6151171;28;82896;-73
2023/06/03 04:13:47;;;;;;;4.72;2.00;;;23.30;50.60;;;;;;6153879;28;80538;-71
2023/06/03 04:16:48;;;;;;;2.92;2.10;;;23.40;50.90;;;;;;6152822;28;81317;-71
2023/06/03 04:19:52;;;;;;;3.20;1.92;;;23.40;50.80;;;;;;6154301;28;83814;-72
2023/06/03 04:22:56;;;;;;;3.25;2.03;;;23.40;50.90;;;;;;6151877;28;81808;-72
2023/06/03 04:25:56;;;;;;;5.70;2.33;;;23.40;51.00;;;;;;6154407;28;82231;-73
2023/06/03 04:28:58;;;;;;;3.83;2.10;;;23.40;51.10;;;;;;6152444;28;80178;-67
2023/06/03 04:31:59;;;;;;;4.25;2.13;;;23.40;51.00;;;;;;6157626;28;82332;-68
2023/06/03 04:34:59;;;;;;;4.22;2.70;;;23.40;50.70;;;;;;6142505;28;83821;-67
2023/06/03 04:38:00;;;;;;;10.07;3.92;;;23.40;51.20;;;;;;6153219;28;80597;-60
2023/06/03 04:41:02;;;;;;;14.23;5.10;;;23.40;51.00;;;;;;6152910;28;83161;-59
2023/06/03 04:44:03;;;;;;;23.75;8.13;;;23.40;50.70;;;;;;6148136;28;82588;-60
2023/06/03 04:47:04;;;;;;;20.13;6.35;;;23.40;50.50;;;;;;6151913;28;83478;-60
2023/06/03 04:50:04;;;;;;;19.45;6.10;;;23.30;50.50;;;;;;6151638;28;83444;-60
2023/06/03 04:53:06;;;;;;;15.85;5.10;;;23.30;51.00;;;;;;6151437;28;83212;-59
2023/06/03 04:56:08;;;;;;;16.00;5.65;;;23.30;50.30;;;;;;6154999;28;83383;-61
2023/06/03 04:59:10;;;;;;;17.95;4.82;;;23.30;50.70;;;;;;6148770;28;84319;-60
2023/06/03 05:02:20;;;;;;;12.43;4.70;;;23.30;50.50;;;;;;6143124;28;83538;-59
2023/06/03 05:05:21;;;;;;;15.13;4.95;;;23.30;50.50;;;;;;6157567;28;88263;-61
2023/06/03 05:08:22;;;;;;;11.75;4.18;;;23.30;50.40;;;;;;6166506;28;83205;-60
2023/06/03 05:11:25;;;;;;;16.73;4.53;;;23.30;50.40;;;;;;6151464;28;83597;-61
2023/06/03 05:14:26;;;;;;;11.45;3.70;;;23.30;50.30;;;;;;6168490;28;83377;-60
2023/06/03 05:17:27;;;;;;;13.98;4.20;;;23.30;50.40;;;;;;6142953;28;82312;-62
2023/06/03 05:20:27;;;;;;;10.50;4.32;;;23.30;50.70;;;;;;6149134;28;81939;-66
2023/06/03 05:23:28;;;;;;;10.05;4.20;;;23.30;50.60;;;;;;6150154;28;83048;-62
2023/06/03 05:26:29;;;;;;;11.45;3.42;;;23.40;51.70;;;;;;6152916;28;80978;-64
2023/06/03 05:29:30;;;;;;;10.10;3.55;;;23.50;51.70;;;;;;6153566;28;82983;-62
2023/06/03 05:32:31;;;;;;;14.50;4.20;;;23.40;51.50;;;;;;6149930;28;82806;-73
2023/06/03 05:35:32;;;;;;;7.07;3.53;;;23.40;51.00;;;;;;6151436;28;81618;-74
2023/06/03 05:38:33;;;;;;;15.98;5.03;;;23.40;51.00;;;;;;6151464;28;83008;-67
2023/06/03 05:41:35;;;;;;;15.90;7.07;;;23.40;50.90;;;;;;6168359;28;83620;-67
2023/06/03 05:44:36;;;;;;;16.35;7.55;;;23.40;50.50;;;;;;6157448;28;83167;-71
2023/06/03 05:47:37;;;;;;;13.93;7.68;;;23.40;50.60;;;;;;6162647;28;83522;-72
2023/06/03 05:50:38;;;;;;;16.05;7.13;;;23.40;51.20;;;;;;6148759;28;83487;-65
2023/06/03 05:53:43;;;;;;;14.27;6.63;;;23.50;51.60;;;;;;6149439;28;82952;-71
2023/06/03 05:56:45;;;;;;;14.23;6.80;;;23.50;51.50;;;;;;6149687;28;83553;-67
2023/06/03 05:59:46;;;;;;;10.23;5.82;;;23.50;50.90;;;;;;6160544;28;84444;-65
2023/06/03 06:02:47;;;;;;;9.38;5.53;;;23.60;50.90;;;;;;6162956;28;83439;-72
2023/06/03 06:05:49;;;;;;;14.23;5.88;;;23.60;50.00;;;;;;6153405;28;83522;-71
2023/06/03 06:08:49;;;;;;;10.88;5.57;;;23.60;50.30;;;;;;6151065;28;80353;-60
2023/06/03 06:11:50;;;;;;;22.02;5.65;;;23.60;50.10;;;;;;6153969;28;82392;-61
2023/06/03 06:14:50;;;;;;;8.15;5.05;;;23.60;50.30;;;;;;6147246;28;80629;-59
2023/06/03 06:17:51;;;;;;;11.23;5.38;;;23.60;50.40;;;;;;6146365;28;83393;-64
2023/06/03 06:20:52;;;;;;;14.30;5.07;;;23.60;50.70;;;;;;6150200;28;80996;-64
2023/06/03 06:23:53;;;;;;;13.15;6.22;;;23.60;50.20;;;;;;6148457;28;80539;-62
2023/06/03 06:26:53;;;;;;;8.80;4.18;;;23.60;50.50;;;;;;6148554;28;80634;-72
2023/06/03 06:29:54;;;;;;;9.98;5.15;;;23.60;50.70;;;;;;6157966;28;81947;-74
2023/06/03 06:32:54;;;;;;;10.05;4.40;;;23.70;51.00;;;;;;6147683;28;82271;-73
2023/06/03 06:36:04;;;;;;;8.30;4.38;;;23.70;51.00;;;;;;6148796;28;86294;-71
2023/06/03 06:39:04;;;;;;;9.73;3.92;;;23.70;51.00;;;;;;6151269;28;81495;-76
2023/06/03 06:42:06;;;;;;;9.02;4.03;;;23.80;50.90;;;;;;6150516;28;81392;-73
2023/06/03 06:45:06;;;;;;;14.18;4.20;;;23.80;50.80;;;;;;6159677;28;80814;-70
2023/06/03 06:48:07;;;;;;;6.75;4.10;;;23.80;50.60;;;;;;6155603;28;82911;-67
2023/06/03 06:51:11;;;;;;;7.38;4.15;;;23.80;50.70;;;;;;6162918;28;85343;-66
2023/06/03 06:54:11;;;;;;;7.85;3.70;;;23.80;50.80;;;;;;6146036;28;80601;-67
2023/06/03 06:57:12;;;;;;;8.57;3.90;;;23.80;50.90;;;;;;6146080;28;83814;-62
2023/06/03 07:00:13;;;;;;;9.07;3.60;;;23.90;51.10;;;;;;6154635;28;81509;-63
2023/06/03 07:03:13;;;;;;;12.05;4.03;;;23.90;51.20;;;;;;6150130;28;80462;-68
2023/06/03 07:06:14;;;;;;;5.07;3.63;;;23.90;51.20;;;;;;6150578;28;80824;-67
2023/06/03 07:09:16;;;;;;;6.28;3.67;;;24.00;51.30;;;;;;6149057;28;82857;-66
2023/06/03 07:12:17;;;;;;;10.52;3.95;;;24.00;51.30;;;;;;6147857;28;83257;-69
2023/06/03 07:15:18;;;;;;;5.65;3.15;;;24.00;51.30;;;;;;6149483;28;83553;-68
2023/06/03 07:18:18;;;;;;;6.10;3.33;;;24.00;51.30;;;;;;6155049;28;81237;-66
2023/06/03 07:21:23;;;;;;;6.80;3.83;;;24.00;51.20;;;;;;6152547;28;83447;-59
2023/06/03 07:24:24;;;;;;;4.85;3.45;;;24.10;51.30;;;;;;6145330;28;85070;-63
2023/06/03 07:27:25;;;;;;;10.40;3.58;;;24.10;51.20;;;;;;6151163;28;83499;-62
2023/06/03 07:30:26;;;;;;;11.35;2.88;;;24.10;51.50;;;;;;6153009;28;82724;-63
2023/06/03 07:33:27;;;;;;;6.30;3.38;;;24.10;50.80;;;;;;6130326;28;82218;-62
2023/06/03 07:36:28;;;;;;;5.22;3.13;;;24.10;50.60;;;;;;6132901;28;81414;-65
2023/06/03 07:39:29;;;;;;;6.70;4.57;;;24.10;50.60;;;;;;6128944;28;82247;-65
2023/06/03 07:42:34;;;;;;;5.80;3.03;;;24.10;50.90;;;;;;6129055;28;84053;-63
2023/06/03 07:45:45;;;;;;;5.40;3.58;;;24.10;50.60;;;;;;6130173;28;83447;-64
2023/06/03 07:48:45;;;;;;;4.93;2.80;;;24.10;50.80;;;;;;6135533;28;81392;-65
2023/06/03 07:51:46;;;;;;;6.63;3.35;;;24.10;50.50;;;;;;6126767;28;82193;-59
2023/06/03 07:54:46;;;;;;;6.95;2.95;;;24.10;50.30;;;;;;6129612;28;81988;-62
2023/06/03 07:57:47;;;;;;;8.80;3.47;;;24.10;50.40;;;;;;6126791;28;81303;-61
2023/06/03 08:00:47;;;;;;;5.25;3.38;;;24.10;50.40;;;;;;6136415;28;81848;-53
2023/06/03 08:03:48;;;;;;;5.43;2.95;;;24.10;50.70;;;;;;6148379;28;81757;-56
2023/06/03 08:06:52;;;;;;;6.18;2.80;;;24.10;50.70;;;;;;6154587;28;83375;-59
2023/06/03 08:09:53;;;;;;;6.20;2.72;;;24.10;49.10;;;;;;6154290;28;80522;-56
2023/06/03 08:12:53;;;;;;;3.72;2.30;;;24.10;47.80;;;;;;6153730;28;85231;-59
2023/06/03 08:15:54;;;;;;;7.13;2.75;;;24.10;47.30;;;;;;6154542;28;80272;-61
2023/06/03 08:18:54;;;;;;;13.65;3.00;;;24.10;47.40;;;;;;6153239;28;81737;-61
2023/06/03 08:21:55;;;;;;;10.43;2.50;;;24.10;49.20;;;;;;6155210;28;81166;-59
2023/06/03 08:24:56;;;;;;;7.57;2.45;;;24.10;49.30;;;;;;6143433;28;83569;-62
2023/06/03 08:27:56;;;;;;;5.70;2.58;;;24.10;49.90;;;;;;6153446;28;81366;-72
2023/06/03 08:30:57;;;;;;;5.78;2.28;;;24.10;50.80;;;;;;6153482;28;81369;-67
2023/06/03 08:33:57;;;;;;;6.03;2.42;;;24.10;50.10;;;;;;6151910;28;81730;-63
2023/06/03 08:36:58;;;;;;;3.85;2.13;;;24.00;49.20;;;;;;6148919;28;81014;-60
2023/06/03 08:39:58;;;;;;;5.90;2.78;;;24.00;48.50;;;;;;6147367;28;83011;-59
2023/06/03 08:42:59;;;;;;;6.03;2.30;;;24.00;48.30;;;;;;6150435;28;80747;-61
2023/06/03 08:46:00;;;;;;;7.05;2.90;;;24.10;48.30;;;;;;6145891;28;80818;-59
2023/06/03 08:49:00;;;;;;;6.95;2.60;;;24.10;47.50;;;;;;6153061;28;80024;-58
2023/06/03 08:52:03;;;;;;;6.43;2.53;;;24.10;46.80;;;;;;6154329;28;80404;-58
2023/06/03 08:55:04;;;;;;;6.22;2.08;;;24.10;46.70;;;;;;6154597;28;85301;-58
2023/06/03 08:58:05;;;;;;;4.25;1.70;;;24.10;46.40;;;;;;6154345;28;81716;-60
2023/06/03 09:01:06;;;;;;;5.88;2.20;;;24.10;46.20;;;;;;6150842;28;80897;-59
2023/06/03 09:04:06;;;;;;;6.93;2.40;;;24.20;46.20;;;;;;6151911;28;80918;-59
2023/06/03 09:07:09;;;;;;;3.10;1.80;;;24.20;45.90;;;;;;6154446;28;80393;-59
2023/06/03 09:10:10;;;;;;;5.85;2.08;;;24.20;45.70;;;;;;6154088;28;81351;-58
2023/06/03 09:13:11;;;;;;;8.38;2.35;;;24.20;44.50;;;;;;6152850;28;83180;-61
2023/06/03 09:16:11;;;;;;;2.95;1.90;;;24.10;44.60;;;;;;6152504;28;80258;-59
2023/06/03 09:19:12;;;;;;;4.47;1.73;;;24.20;44.40;;;;;;6152001;28;80436;-58
2023/06/03 09:22:12;;;;;;;4.43;2.03;;;24.20;44.10;;;;;;6153930;28;81170;-58
2023/06/03 09:25:13;;;;;;;6.65;1.95;;;24.20;44.00;;;;;;6154397;28;80280;-61
2023/06/03 09:28:13;;;;;;;6.45;2.17;;;24.20;43.90;;;;;;6150474;28;81734;-58
2023/06/03 09:31:14;;;;;;;3.97;1.70;;;24.30;44.00;;;;;;6150334;28;80824;-59
2023/06/03 09:34:15;;;;;;;2.63;1.45;;;24.30;43.50;;;;;;6154660;28;81663;-59
2023/06/03 09:37:15;;;;;;;5.35;1.80;;;24.20;43.60;;;;;;6149671;28;80607;-61
2023/06/03 09:40:16;;;;;;;5.57;1.50;;;24.30;43.30;;;;;;6163506;28;82105;-61
2023/06/03 09:43:16;;;;;;;2.75;1.65;;;24.20;42.20;;;;;;6149502;28;80877;-61
2023/06/03 09:46:17;;;;;;;4.75;1.70;;;24.10;41.50;;;;;;6149263;28;80611;-59
2023/06/03 09:49:18;;;;;;;7.30;1.85;;;24.10;40.40;;;;;;6148073;28;81064;-62
2023/06/03 09:52:19;;;;;;;6.70;1.40;;;24.00;39.60;;;;;;6149087;28;81709;-61
2023/06/03 09:55:22;;;;;;;6.25;1.50;;;24.00;39.50;;;;;;6152484;28;81504;-62
2023/06/03 09:58:23;;;;;;;7.72;2.08;;;24.00;39.90;;;;;;6146824;28;81516;-61
2023/06/03 10:01:23;;;;;;;4.13;1.92;;;23.90;39.10;;;;;;6150168;28;80851;-61
2023/06/03 10:04:24;;;;;;;3.70;1.75;;;23.90;39.10;;;;;;6152337;28;80355;-60
2023/06/03 10:07:24;;;;;;;3.35;2.10;;;23.90;39.40;;;;;;6148672;28;84032;-61
2023/06/03 10:10:25;;;;;;;6.95;1.83;;;23.90;38.90;;;;;;6150722;28;80470;-60
2023/06/03 10:13:26;;;;;;;6.10;1.70;;;23.90;39.50;;;;;;6148701;28;80612;-60
2023/06/03 10:16:26;;;;;;;7.00;1.80;;;23.90;38.60;;;;;;6152231;28;80557;-60
2023/06/03 10:19:26;;;;;;;2.97;1.92;;;23.90;38.90;;;;;;6150583;28;80154;-58
2023/06/03 10:22:27;;;;;;;4.35;1.50;;;23.90;39.30;;;;;;6150434;28;80674;-59
2023/06/03 10:25:27;;;;;;;3.80;2.00;;;23.80;39.30;;;;;;6151717;28;84874;-70
2023/06/03 10:28:28;;;;;;;4.78;1.75;;;23.70;39.50;;;;;;6149373;28;81357;-72
2023/06/03 10:31:28;;;;;;;4.38;2.00;;;23.70;40.20;;;;;;6149667;28;82235;-69
2023/06/03 10:34:29;;;;;;;6.43;1.70;;;23.80;39.90;;;;;;6135307;28;84666;-73
2023/06/03 10:37:29;;;;;;;6.03;1.63;;;23.80;40.40;;;;;;6132603;28;83569;-74
2023/06/03 10:40:30;;;;;;;4.78;1.70;;;23.90;40.40;;;;;;6145049;28;81436;-77
2023/06/03 10:43:31;;;;;;;2.97;1.70;;;23.70;40.20;;;;;;6147470;28;81989;-59
2023/06/03 10:46:32;;;;;;;4.93;1.33;;;23.80;40.20;;;;;;6146667;28;80434;-62
2023/06/03 10:49:32;;;;;;;11.55;2.55;;;23.80;40.70;;;;;;6141602;28;83266;-58
2023/06/03 10:52:33;;;;;;;12.80;1.83;;;23.80;40.90;;;;;;6147427;28;81792;-57
2023/06/03 10:55:33;;;;;;;2.78;1.63;;;23.90;40.70;;;;;;6148444;28;81802;-57
2023/06/03 10:58:34;;;;;;;22.23;2.03;;;23.80;38.50;;;;;;6148634;28;80990;-57
2023/06/03 11:01:34;;;;;;;6.22;1.42;;;23.70;37.40;;;;;;6151522;28;80675;-60
2023/06/03 11:04:38;;;;;;;9.15;1.40;;;23.70;37.20;;;;;;6149753;28;81185;-63
2023/06/03 11:07:38;;;;;;;4.25;1.40;;;23.70;37.20;;;;;;6151139;28;80412;-66
2023/06/03 11:10:39;;;;;;;10.60;1.90;;;23.60;36.80;;;;;;6150049;28;80060;-64
2023/06/03 11:13:44;;;;;;;2.97;1.33;;;23.60;37.00;;;;;;6145441;28;81545;-60
2023/06/03 11:16:45;;;;;;;5.43;1.55;;;23.50;36.60;;;;;;6150778;28;80526;-63
2023/06/03 11:19:45;;;;;;;8.95;1.98;;;23.60;36.80;;;;;;6150397;28;84454;-64
2023/06/03 11:22:46;;;;;;;3.83;1.45;;;23.50;36.90;;;;;;6147968;28;81549;-64
2023/06/03 11:25:47;;;;;;;8.80;1.83;;;23.50;36.00;;;;;;6148899;28;80405;-63
2023/06/03 11:28:47;;;;;;;11.95;1.92;;;23.50;36.50;;;;;;6148662;28;83607;-64
2023/06/03 11:31:48;;;;;;;4.40;1.55;;;23.60;37.40;;;;;;6128258;28;83778;-67
2023/06/03 11:34:48;;;;;;;4.93;1.35;;;23.60;37.90;;;;;;6143647;28;82423;-66
2023/06/03 11:37:49;;;;;;;10.30;1.42;;;23.70;39.10;;;;;;6147583;28;81492;-63
2023/06/03 11:40:50;;;;;;;6.93;1.98;;;23.80;39.90;;;;;;6148887;28;81307;-61
2023/06/03 11:43:50;;;;;;;7.03;1.75;;;23.90;40.60;;;;;;6149016;28;85445;-64
2023/06/03 11:46:51;;;;;;;4.43;1.40;;;23.90;40.60;;;;;;6148839;28;80496;-64
2023/06/03 11:49:52;;;;;;;7.63;1.50;;;24.00;40.80;;;;;;6147352;28;80968;-64
2023/06/03 11:52:52;;;;;;;11.13;1.35;;;24.00;40.90;;;;;;6148602;28;80904;-64
2023/06/03 11:55:53;;;;;;;12.07;1.92;;;24.00;41.00;;;;;;6144171;28;83225;-67
2023/06/03 11:58:53;;;;;;;4.38;1.17;;;24.10;42.00;;;;;;6151101;28;80304;-62
2023/06/03 12:01:54;;;;;;;9.82;1.52;;;24.10;42.70;;;;;;6151893;28;82129;-62
2023/06/03 12:04:55;;;;;;;3.17;1.05;;;24.10;43.50;;;;;;6151345;28;80566;-63
2023/06/03 12:07:55;;;;;;;4.65;1.52;;;24.20;44.70;;;;;;6151834;28;84134;-63
2023/06/03 12:10:56;;;;;;;9.70;3.40;;;24.30;46.00;;;;;;6153045;28;80722;-64
2023/06/03 12:13:56;;;;;;;50.95;7.55;;;24.30;47.30;;;;;;6153927;28;80404;-64
2023/06/03 12:16:57;;;;;;;26.92;6.20;;;24.40;47.80;;;;;;6153628;28;80096;-61
2023/06/03 12:19:58;;;;;;;37.55;8.02;;;24.40;45.90;;;;;;6153025;28;80214;-61
2023/06/03 12:22:58;;;;;;;36.00;9.48;;;24.30;45.50;;;;;;6152025;28;80746;-63
2023/06/03 12:26:00;;;;;;;32.72;8.43;;;24.30;43.20;;;;;;6153381;28;80608;-61
2023/06/03 12:29:00;;;;;;;29.60;7.68;;;24.30;43.40;;;;;;6151784;28;80636;-62
2023/06/03 12:32:01;;;;;;;14.88;3.63;;;24.30;42.70;;;;;;6150827;28;81404;-60
2023/06/03 12:35:02;;;;;;;7.07;2.40;;;24.30;39.70;;;;;;6149768;28;84761;-69
2023/06/03 12:38:03;;;;;;;7.82;2.72;;;24.20;38.60;;;;;;6149806;28;81674;-67
2023/06/03 12:41:04;;;;;;;7.35;1.85;;;24.20;38.60;;;;;;6150489;28;80079;-67
2023/06/03 12:44:04;;;;;;;9.57;2.13;;;24.20;37.60;;;;;;6151887;28;80524;-71
2023/06/03 12:47:05;;;;;;;6.32;1.60;;;24.20;37.30;;;;;;6152259;28;81648;-71
2023/06/03 12:50:06;;;;;;;8.90;1.80;;;24.10;37.60;;;;;;6148813;28;80841;-67
2023/06/03 12:53:06;;;;;;;5.40;1.60;;;24.10;37.70;;;;;;6148023;28;83062;-62
2023/06/03 12:56:07;;;;;;;6.68;1.60;;;24.20;38.10;;;;;;6147823;28;82838;-62
2023/06/03 12:59:07;;;;;;;2.90;1.50;;;24.10;37.70;;;;;;6150882;28;80718;-62
2023/06/03 13:02:08;;;;;;;9.43;1.50;;;24.10;37.30;;;;;;6152353;28;80295;-61
2023/06/03 13:05:08;;;;;;;1.85;1.30;;;24.10;36.70;;;;;;6152819;28;80667;-61
2023/06/03 13:08:11;;;;;;;4.60;1.55;;;24.10;36.70;;;;;;6151286;28;80750;-60
2023/06/03 13:11:12;;;;;;;8.30;1.67;;;24.10;36.80;;;;;;6151619;28;80825;-66
2023/06/03 13:14:12;;;;;;;5.72;1.60;;;24.10;37.00;;;;;;6149830;28;81672;-66
2023/06/03 13:17:13;;;;;;;5.20;1.25;;;24.10;36.50;;;;;;6148997;28;80710;-70
2023/06/03 13:20:15;;;;;;;5.70;1.55;;;24.10;36.70;;;;;;6150740;28;80310;-61
2023/06/03 13:23:16;;;;;;;3.75;1.23;;;24.10;36.40;;;;;;6152686;28;80878;-67
2023/06/03 13:26:16;;;;;;;2.83;1.50;;;24.00;36.10;;;;;;6152708;28;81698;-65
2023/06/03 13:29:18;;;;;;;9.77;1.52;;;24.00;36.30;;;;;;6149188;28;81762;-70
2023/06/03 13:32:18;;;;;;;7.63;1.30;;;24.00;35.80;;;;;;6153227;28;80406;-68
2023/06/03 13:35:19;;;;;;;5.60;1.15;;;23.90;35.90;;;;;;6147395;28;85458;-67
2023/06/03 13:38:19;;;;;;;6.55;1.65;;;24.00;35.90;;;;;;6153107;28;81066;-70
2023/06/03 13:41:20;;;;;;;5.35;1.45;;;24.00;36.00;;;;;;6154523;28;80836;-73
2023/06/03 13:44:21;;;;;;;3.67;1.30;;;24.00;35.50;;;;;;6152412;28;80869;-73
2023/06/03 13:47:22;;;;;;;3.47;0.90;;;24.00;36.00;;;;;;6146710;28;80373;-72
2023/06/03 13:50:22;;;;;;;4.32;1.20;;;24.10;35.80;;;;;;6138608;28;80606;-74
2023/06/03 13:53:23;;;;;;;4.70;1.30;;;24.10;36.00;;;;;;6151816;28;81158;-71
2023/06/03 13:56:24;;;;;;;4.22;1.17;;;24.10;36.10;;;;;;6155465;28;80576;-69
2023/06/03 13:59:25;;;;;;;6.03;1.30;;;24.00;36.50;;;;;;6153113;28;80728;-69
2023/06/03 14:02:26;;;;;;;5.75;1.13;;;24.10;36.50;;;;;;6150672;28;81676;-69
2023/06/03 14:05:27;;;;;;;5.93;1.40;;;24.10;36.60;;;;;;6151562;28;80322;-69
2023/06/03 14:08:28;;;;;;;5.28;2.08;;;24.10;36.90;;;;;;6153270;28;80863;-68
2023/06/03 14:11:29;;;;;;;2.20;1.33;;;24.10;37.00;;;;;;6157814;28;81183;-75
2023/06/03 14:14:29;;;;;;;4.07;1.80;;;24.10;37.00;;;;;;6155916;28;82256;-77
2023/06/03 14:17:30;;;;;;;2.58;1.10;;;24.20;36.80;;;;;;6151746;28;81136;-70
2023/06/03 14:20:30;;;;;;;3.55;1.33;;;24.10;36.80;;;;;;6153584;28;80444;-69
2023/06/03 14:23:31;;;;;;;4.03;1.38;;;24.10;35.80;;;;;;6153912;28;80866;-69
2023/06/03 14:26:35;;;;;;;3.03;1.40;;;24.10;35.50;;;;;;6155991;28;80744;-70
2023/06/03 14:29:35;;;;;;;2.42;1.48;;;24.10;34.70;;;;;;6156428;28;80670;-67
2023/06/03 14:32:36;;;;;;;5.85;1.30;;;24.10;34.50;;;;;;6156863;28;80689;-65
2023/06/03 14:35:36;;;;;;;4.25;1.15;;;24.00;34.50;;;;;;6154147;28;80494;-64
2023/06/03 14:38:37;;;;;;;2.00;1.30;;;24.00;34.30;;;;;;6153369;28;86454;-62
2023/06/03 14:41:38;;;;;;;2.33;1.60;;;24.00;35.00;;;;;;6154262;28;80337;-65
2023/06/03 14:44:38;;;;;;;2.47;1.20;;;24.00;35.20;;;;;;6151401;28;80836;-65
2023/06/03 14:47:39;;;;;;;2.88;0.95;;;24.00;35.10;;;;;;6152532;28;81038;-59
2023/06/03 14:50:39;;;;;;;4.50;1.40;;;24.00;35.50;;;;;;6153109;28;81148;-67
2023/06/03 14:53:40;;;;;;;3.72;1.30;;;24.00;36.00;;;;;;6155052;28;80600;-62
2023/06/03 14:56:40;;;;;;;12.90;2.47;;;24.00;36.50;;;;;;6153526;28;80035;-63
2023/06/03 14:59:41;;;;;;;4.38;1.80;;;24.00;36.80;;;;;;6154463;28;80708;-61
2023/06/03 15:02:42;;;;;;;5.75;1.58;;;24.00;37.00;;;;;;6155309;28;80795;-68
2023/06/03 15:05:42;;;;;;;3.70;1.58;;;24.00;37.00;;;;;;6150840;28;80838;-67
2023/06/03 15:08:43;;;;;;;8.45;2.13;;;24.00;37.30;;;;;;6136916;28;80556;-70
2023/06/03 15:11:43;;;;;;;3.80;1.88;;;24.00;37.80;;;;;;6128243;28;82311;-72
2023/06/03 15:14:44;;;;;;;6.40;1.77;;;24.00;38.30;;;;;;6151244;28;82089;-77
2023/06/03 15:17:45;;;;;;;3.72;1.63;;;24.00;38.10;;;;;;6158709;28;80686;-73
2023/06/03 15:20:46;;;;;;;9.05;1.60;;;24.00;38.00;;;;;;6153045;28;80452;-73
2023/06/03 15:23:46;;;;;;;5.93;1.25;;;24.00;37.90;;;;;;6152313;28;80314;-72
2023/06/03 15:26:47;;;;;;;6.57;1.85;;;24.00;38.10;;;;;;6154312;28;81274;-72
2023/06/03 15:29:48;;;;;;;3.72;1.52;;;24.00;38.10;;;;;;6153231;28;80834;-73
2023/06/03 15:32:48;;;;;;;5.70;1.65;;;24.00;38.30;;;;;;6153607;28;80369;-74
2023/06/03 15:35:49;;;;;;;2.70;1.52;;;24.00;38.30;;;;;;6156924;28;80578;-71
2023/06/03 15:38:49;;;;;;;8.70;2.00;;;24.00;38.20;;;;;;6155738;28;80346;-62